sensor_id;sensor_type;location;lat;lon;timestamp;P1;durP1;ratioP1;P2;durP2;ratioP2
37483;SDS011;23337;52.212;9.926;2022-12-11T00:02:17;27.20;;;18.43;;
37483;SDS011;23337;52.212;9.926;2022-12-11T00:04:43;30.33;;;19.47;;
37483;SDS011;23337;52.212;9.926;2022-12-11T00:07:09;30.77;;;19.10;;
37483;SDS011;23337;52.212;9.926;2022-12-11T00:09:35;30.80;;;19.57;;
37483;SDS011;23337;52.212;9.926;2022-12-11T00:12:01;29.60;;;17.43;;
37483;SDS011;23337;52.212;9.926;2022-12-11T00:14:27;28.87;;;17.40;;
37483;SDS011;23337;52.212;9.926;2022-12-11T00:16:53;30.00;;;18.67;;
37483;SDS011;23337;52.212;9.926;2022-12-11T00:19:19;29.93;;;18.23;;
37483;SDS011;23337;52.212;9.926;2022-12-11T00:21:45;28.47;;;17.77;;
37483;SDS011;23337;52.212;9.926;2022-12-11T00:24:11;30.60;;;18.73;;
37483;SDS011;23337;52.212;9.926;2022-12-11T00:26:38;24.93;;;16.33;;
37483;SDS011;23337;52.212;9.926;2022-12-11T00:29:04;26.47;;;17.57;;
37483;SDS011;23337;52.212;9.926;2022-12-11T00:31:32;25.47;;;16.47;;
37483;SDS011;23337;52.212;9.926;2022-12-11T00:33:59;27.17;;;17.07;;
37483;SDS011;23337;52.212;9.926;2022-12-11T00:36:25;29.33;;;17.70;;
37483;SDS011;23337;52.212;9.926;2022-12-11T00:38:52;21.60;;;15.30;;
37483;SDS011;23337;52.212;9.926;2022-12-11T00:41:18;26.33;;;18.20;;
37483;SDS011;23337;52.212;9.926;2022-12-11T00:43:44;24.97;;;16.23;;
37483;SDS011;23337;52.212;9.926;2022-12-11T00:46:10;26.43;;;16.97;;
37483;SDS011;23337;52.212;9.926;2022-12-11T00:48:36;24.43;;;16.20;;
37483;SDS011;23337;52.212;9.926;2022-12-11T00:51:02;25.67;;;16.77;;
37483;SDS011;23337;52.212;9.926;2022-12-11T00:53:28;27.33;;;17.60;;
37483;SDS011;23337;52.212;9.926;2022-12-11T00:55:54;22.87;;;15.27;;
37483;SDS011;23337;52.212;9.926;2022-12-11T00:58:20;24.43;;;17.00;;
37483;SDS011;23337;52.212;9.926;2022-12-11T01:00:46;24.00;;;17.10;;
37483;SDS011;23337;52.212;9.926;2022-12-11T01:03:14;29.23;;;18.17;;
37483;SDS011;23337;52.212;9.926;2022-12-11T01:05:40;24.00;;;16.37;;
37483;SDS011;23337;52.212;9.926;2022-12-11T01:08:06;24.10;;;17.37;;
37483;SDS011;23337;52.212;9.926;2022-12-11T01:10:33;26.90;;;17.37;;
37483;SDS011;23337;52.212;9.926;2022-12-11T01:13:00;25.93;;;16.90;;
37483;SDS011;23337;52.212;9.926;2022-12-11T01:15:28;24.97;;;18.53;;
37483;SDS011;23337;52.212;9.926;2022-12-11T01:17:54;26.07;;;18.13;;
37483;SDS011;23337;52.212;9.926;2022-12-11T01:20:21;24.00;;;17.60;;
37483;SDS011;23337;52.212;9.926;2022-12-11T01:22:47;23.50;;;17.57;;
37483;SDS011;23337;52.212;9.926;2022-12-11T01:25:16;23.73;;;16.80;;
37483;SDS011;23337;52.212;9.926;2022-12-11T01:27:42;27.43;;;17.60;;
37483;SDS011;23337;52.212;9.926;2022-12-11T01:30:08;25.30;;;18.10;;
37483;SDS011;23337;52.212;9.926;2022-12-11T01:32:35;26.83;;;17.40;;
37483;SDS011;23337;52.212;9.926;2022-12-11T01:35:04;25.80;;;17.23;;
37483;SDS011;23337;52.212;9.926;2022-12-11T01:37:31;22.70;;;15.83;;
37483;SDS011;23337;52.212;9.926;2022-12-11T01:39:57;25.80;;;16.23;;
37483;SDS011;23337;52.212;9.926;2022-12-11T01:42:23;25.83;;;17.53;;
37483;SDS011;23337;52.212;9.926;2022-12-11T01:47:15;27.63;;;18.87;;
37483;SDS011;23337;52.212;9.926;2022-12-11T01:49:41;29.03;;;19.07;;
37483;SDS011;23337;52.212;9.926;2022-12-11T01:52:12;26.43;;;17.67;;
37483;SDS011;23337;52.212;9.926;2022-12-11T01:54:39;26.30;;;18.17;;
37483;SDS011;23337;52.212;9.926;2022-12-11T01:57:06;28.13;;;17.57;;
37483;SDS011;23337;52.212;9.926;2022-12-11T01:59:34;27.07;;;19.20;;
37483;SDS011;23337;52.212;9.926;2022-12-11T02:02:02;24.90;;;17.77;;
37483;SDS011;23337;52.212;9.926;2022-12-11T02:04:29;26.23;;;18.57;;
37483;SDS011;23337;52.212;9.926;2022-12-11T02:06:55;27.60;;;18.47;;
37483;SDS011;23337;52.212;9.926;2022-12-11T02:09:27;25.97;;;17.97;;
37483;SDS011;23337;52.212;9.926;2022-12-11T02:11:55;27.87;;;17.27;;
37483;SDS011;23337;52.212;9.926;2022-12-11T02:17:06;27.83;;;19.03;;
37483;SDS011;23337;52.212;9.926;2022-12-11T02:19:43;26.83;;;19.20;;
37483;SDS011;23337;52.212;9.926;2022-12-11T02:22:10;25.43;;;18.57;;
37483;SDS011;23337;52.212;9.926;2022-12-11T02:27:50;28.20;;;18.83;;
37483;SDS011;23337;52.212;9.926;2022-12-11T02:30:10;28.17;;;18.97;;
37483;SDS011;23337;52.212;9.926;2022-12-11T02:37:33;24.43;;;17.23;;
37483;SDS011;23337;52.212;9.926;2022-12-11T02:40:00;26.27;;;17.77;;
37483;SDS011;23337;52.212;9.926;2022-12-11T02:42:28;25.83;;;17.27;;
37483;SDS011;23337;52.212;9.926;2022-12-11T02:44:55;27.70;;;18.00;;
37483;SDS011;23337;52.212;9.926;2022-12-11T02:47:24;26.40;;;18.30;;
37483;SDS011;23337;52.212;9.926;2022-12-11T02:49:51;24.53;;;17.77;;
37483;SDS011;23337;52.212;9.926;2022-12-11T02:52:18;26.20;;;17.63;;
37483;SDS011;23337;52.212;9.926;2022-12-11T02:54:45;26.77;;;19.10;;
37483;SDS011;23337;52.212;9.926;2022-12-11T02:57:23;25.07;;;18.30;;
37483;SDS011;23337;52.212;9.926;2022-12-11T02:59:50;26.10;;;18.10;;
37483;SDS011;23337;52.212;9.926;2022-12-11T03:02:16;27.20;;;19.03;;
37483;SDS011;23337;52.212;9.926;2022-12-11T03:04:43;26.13;;;18.57;;
37483;SDS011;23337;52.212;9.926;2022-12-11T03:07:28;23.83;;;17.83;;
37483;SDS011;23337;52.212;9.926;2022-12-11T03:09:56;23.50;;;16.50;;
37483;SDS011;23337;52.212;9.926;2022-12-11T03:12:29;24.13;;;17.10;;
37483;SDS011;23337;52.212;9.926;2022-12-11T03:15:00;25.13;;;18.10;;
37483;SDS011;23337;52.212;9.926;2022-12-11T03:20:11;28.10;;;18.17;;
37483;SDS011;23337;52.212;9.926;2022-12-11T03:22:40;24.37;;;17.40;;
37483;SDS011;23337;52.212;9.926;2022-12-11T03:25:11;22.17;;;17.03;;
37483;SDS011;23337;52.212;9.926;2022-12-11T03:27:44;26.30;;;18.00;;
37483;SDS011;23337;52.212;9.926;2022-12-11T03:30:12;25.90;;;17.40;;
37483;SDS011;23337;52.212;9.926;2022-12-11T03:32:41;22.20;;;17.47;;
37483;SDS011;23337;52.212;9.926;2022-12-11T03:35:17;27.63;;;18.67;;
37483;SDS011;23337;52.212;9.926;2022-12-11T03:37:43;24.00;;;16.60;;
37483;SDS011;23337;52.212;9.926;2022-12-11T03:40:12;26.07;;;17.20;;
37483;SDS011;23337;52.212;9.926;2022-12-11T03:42:40;23.60;;;17.10;;
37483;SDS011;23337;52.212;9.926;2022-12-11T03:45:06;26.80;;;18.40;;
37483;SDS011;23337;52.212;9.926;2022-12-11T03:47:32;24.73;;;17.00;;
37483;SDS011;23337;52.212;9.926;2022-12-11T03:49:59;24.13;;;17.70;;
37483;SDS011;23337;52.212;9.926;2022-12-11T03:52:26;26.23;;;18.00;;
37483;SDS011;23337;52.212;9.926;2022-12-11T03:54:54;23.00;;;17.43;;
37483;SDS011;23337;52.212;9.926;2022-12-11T03:57:21;27.27;;;18.37;;
37483;SDS011;23337;52.212;9.926;2022-12-11T03:59:50;25.23;;;16.93;;
37483;SDS011;23337;52.212;9.926;2022-12-11T04:02:16;25.00;;;17.17;;
37483;SDS011;23337;52.212;9.926;2022-12-11T04:04:42;24.87;;;16.97;;
37483;SDS011;23337;52.212;9.926;2022-12-11T04:07:08;25.47;;;17.60;;
37483;SDS011;23337;52.212;9.926;2022-12-11T04:09:34;25.10;;;16.73;;
37483;SDS011;23337;52.212;9.926;2022-12-11T04:12:00;21.93;;;16.73;;
37483;SDS011;23337;52.212;9.926;2022-12-11T04:14:26;23.23;;;16.23;;
37483;SDS011;23337;52.212;9.926;2022-12-11T04:17:10;25.70;;;16.57;;
37483;SDS011;23337;52.212;9.926;2022-12-11T04:19:56;26.87;;;17.03;;
37483;SDS011;23337;52.212;9.926;2022-12-11T04:22:41;23.47;;;15.87;;
37483;SDS011;23337;52.212;9.926;2022-12-11T04:25:26;23.73;;;16.40;;
37483;SDS011;23337;52.212;9.926;2022-12-11T04:27:51;20.37;;;15.30;;
37483;SDS011;23337;52.212;9.926;2022-12-11T04:30:22;26.63;;;16.47;;
37483;SDS011;23337;52.212;9.926;2022-12-11T04:32:49;23.70;;;15.90;;
37483;SDS011;23337;52.212;9.926;2022-12-11T04:35:15;23.67;;;15.83;;
37483;SDS011;23337;52.212;9.926;2022-12-11T04:37:41;25.50;;;18.47;;
37483;SDS011;23337;52.212;9.926;2022-12-11T04:40:08;23.03;;;15.77;;
37483;SDS011;23337;52.212;9.926;2022-12-11T04:42:34;24.70;;;16.00;;
37483;SDS011;23337;52.212;9.926;2022-12-11T04:45:00;24.83;;;16.77;;
37483;SDS011;23337;52.212;9.926;2022-12-11T04:47:26;25.70;;;17.33;;
37483;SDS011;23337;52.212;9.926;2022-12-11T04:49:52;22.30;;;16.67;;
37483;SDS011;23337;52.212;9.926;2022-12-11T04:52:18;25.70;;;16.93;;
37483;SDS011;23337;52.212;9.926;2022-12-11T04:54:44;24.13;;;16.17;;
37483;SDS011;23337;52.212;9.926;2022-12-11T04:57:10;24.33;;;16.63;;
37483;SDS011;23337;52.212;9.926;2022-12-11T04:59:36;24.77;;;16.27;;
37483;SDS011;23337;52.212;9.926;2022-12-11T05:02:02;24.77;;;15.83;;
37483;SDS011;23337;52.212;9.926;2022-12-11T05:04:32;23.43;;;16.17;;
37483;SDS011;23337;52.212;9.926;2022-12-11T05:06:58;24.00;;;15.90;;
37483;SDS011;23337;52.212;9.926;2022-12-11T05:09:25;22.87;;;15.73;;
37483;SDS011;23337;52.212;9.926;2022-12-11T05:11:51;22.87;;;16.23;;
37483;SDS011;23337;52.212;9.926;2022-12-11T05:14:17;24.23;;;15.80;;
37483;SDS011;23337;52.212;9.926;2022-12-11T05:16:43;23.53;;;16.13;;
37483;SDS011;23337;52.212;9.926;2022-12-11T05:19:09;23.27;;;16.07;;
37483;SDS011;23337;52.212;9.926;2022-12-11T05:21:35;20.67;;;15.17;;
37483;SDS011;23337;52.212;9.926;2022-12-11T05:24:01;26.63;;;17.43;;
37483;SDS011;23337;52.212;9.926;2022-12-11T05:26:27;22.63;;;16.33;;
37483;SDS011;23337;52.212;9.926;2022-12-11T05:28:53;24.00;;;16.40;;
37483;SDS011;23337;52.212;9.926;2022-12-11T05:31:20;24.27;;;16.77;;
37483;SDS011;23337;52.212;9.926;2022-12-11T05:33:46;21.87;;;15.93;;
37483;SDS011;23337;52.212;9.926;2022-12-11T05:36:18;24.30;;;15.87;;
37483;SDS011;23337;52.212;9.926;2022-12-11T05:38:44;22.80;;;16.23;;
37483;SDS011;23337;52.212;9.926;2022-12-11T05:41:12;22.30;;;15.93;;
37483;SDS011;23337;52.212;9.926;2022-12-11T05:43:38;23.00;;;16.57;;
37483;SDS011;23337;52.212;9.926;2022-12-11T05:46:08;21.23;;;14.70;;
37483;SDS011;23337;52.212;9.926;2022-12-11T05:48:35;20.70;;;14.87;;
37483;SDS011;23337;52.212;9.926;2022-12-11T05:51:01;23.80;;;16.77;;
37483;SDS011;23337;52.212;9.926;2022-12-11T05:53:28;24.33;;;16.40;;
37483;SDS011;23337;52.212;9.926;2022-12-11T05:55:54;22.80;;;14.83;;
37483;SDS011;23337;52.212;9.926;2022-12-11T05:58:20;22.00;;;15.33;;
37483;SDS011;23337;52.212;9.926;2022-12-11T06:00:46;20.70;;;15.63;;
37483;SDS011;23337;52.212;9.926;2022-12-11T06:03:12;23.53;;;16.50;;
37483;SDS011;23337;52.212;9.926;2022-12-11T06:05:39;22.80;;;17.00;;
37483;SDS011;23337;52.212;9.926;2022-12-11T06:08:05;23.13;;;16.40;;
37483;SDS011;23337;52.212;9.926;2022-12-11T06:10:31;24.10;;;15.97;;
37483;SDS011;23337;52.212;9.926;2022-12-11T06:12:57;25.17;;;16.77;;
37483;SDS011;23337;52.212;9.926;2022-12-11T06:15:23;23.60;;;15.03;;
37483;SDS011;23337;52.212;9.926;2022-12-11T06:17:49;22.13;;;15.67;;
37483;SDS011;23337;52.212;9.926;2022-12-11T06:20:15;24.00;;;15.70;;
37483;SDS011;23337;52.212;9.926;2022-12-11T06:22:41;24.33;;;16.77;;
37483;SDS011;23337;52.212;9.926;2022-12-11T06:25:07;23.03;;;16.30;;
37483;SDS011;23337;52.212;9.926;2022-12-11T06:27:33;23.83;;;16.73;;
37483;SDS011;23337;52.212;9.926;2022-12-11T06:29:59;24.83;;;16.43;;
37483;SDS011;23337;52.212;9.926;2022-12-11T06:32:25;26.40;;;17.47;;
37483;SDS011;23337;52.212;9.926;2022-12-11T06:34:51;23.90;;;16.53;;
37483;SDS011;23337;52.212;9.926;2022-12-11T06:37:17;23.60;;;16.20;;
37483;SDS011;23337;52.212;9.926;2022-12-11T06:39:43;24.60;;;17.03;;
37483;SDS011;23337;52.212;9.926;2022-12-11T06:42:09;24.13;;;16.73;;
37483;SDS011;23337;52.212;9.926;2022-12-11T06:44:35;27.07;;;16.83;;
37483;SDS011;23337;52.212;9.926;2022-12-11T06:47:02;22.37;;;16.73;;
37483;SDS011;23337;52.212;9.926;2022-12-11T06:49:28;22.93;;;16.83;;
37483;SDS011;23337;52.212;9.926;2022-12-11T06:51:54;25.20;;;17.60;;
37483;SDS011;23337;52.212;9.926;2022-12-11T06:54:24;23.30;;;16.10;;
37483;SDS011;23337;52.212;9.926;2022-12-11T06:56:50;25.60;;;17.40;;
37483;SDS011;23337;52.212;9.926;2022-12-11T06:59:16;24.53;;;17.53;;
37483;SDS011;23337;52.212;9.926;2022-12-11T07:01:42;28.37;;;17.83;;
37483;SDS011;23337;52.212;9.926;2022-12-11T07:04:08;25.10;;;17.23;;
37483;SDS011;23337;52.212;9.926;2022-12-11T07:06:34;25.47;;;16.53;;
37483;SDS011;23337;52.212;9.926;2022-12-11T07:09:02;27.13;;;18.00;;
37483;SDS011;23337;52.212;9.926;2022-12-11T07:11:28;27.53;;;19.10;;
37483;SDS011;23337;52.212;9.926;2022-12-11T07:13:56;27.13;;;19.23;;
37483;SDS011;23337;52.212;9.926;2022-12-11T07:16:23;24.77;;;17.90;;
37483;SDS011;23337;52.212;9.926;2022-12-11T07:18:49;22.43;;;14.73;;
37483;SDS011;23337;52.212;9.926;2022-12-11T07:21:16;22.97;;;16.60;;
37483;SDS011;23337;52.212;9.926;2022-12-11T07:23:42;24.67;;;16.80;;
37483;SDS011;23337;52.212;9.926;2022-12-11T07:26:12;21.73;;;15.73;;
37483;SDS011;23337;52.212;9.926;2022-12-11T07:28:38;25.77;;;17.43;;
37483;SDS011;23337;52.212;9.926;2022-12-11T07:31:05;20.70;;;15.43;;
37483;SDS011;23337;52.212;9.926;2022-12-11T07:33:31;21.73;;;15.97;;
37483;SDS011;23337;52.212;9.926;2022-12-11T07:35:59;23.57;;;16.33;;
37483;SDS011;23337;52.212;9.926;2022-12-11T07:38:26;24.57;;;15.93;;
37483;SDS011;23337;52.212;9.926;2022-12-11T07:40:52;25.97;;;15.93;;
37483;SDS011;23337;52.212;9.926;2022-12-11T07:43:17;22.07;;;15.33;;
37483;SDS011;23337;52.212;9.926;2022-12-11T07:45:43;24.13;;;16.40;;
37483;SDS011;23337;52.212;9.926;2022-12-11T07:48:09;23.40;;;16.83;;
37483;SDS011;23337;52.212;9.926;2022-12-11T07:50:36;23.70;;;16.83;;
37483;SDS011;23337;52.212;9.926;2022-12-11T07:53:02;23.60;;;17.20;;
37483;SDS011;23337;52.212;9.926;2022-12-11T07:55:28;22.43;;;16.30;;
37483;SDS011;23337;52.212;9.926;2022-12-11T07:57:54;21.00;;;15.17;;
37483;SDS011;23337;52.212;9.926;2022-12-11T08:00:20;19.40;;;15.23;;
37483;SDS011;23337;52.212;9.926;2022-12-11T08:02:46;20.30;;;15.30;;
37483;SDS011;23337;52.212;9.926;2022-12-11T08:05:12;22.70;;;16.87;;
37483;SDS011;23337;52.212;9.926;2022-12-11T08:07:38;23.63;;;17.17;;
37483;SDS011;23337;52.212;9.926;2022-12-11T08:10:04;22.17;;;15.63;;
37483;SDS011;23337;52.212;9.926;2022-12-11T08:12:30;24.40;;;16.80;;
37483;SDS011;23337;52.212;9.926;2022-12-11T08:14:56;21.27;;;15.33;;
37483;SDS011;23337;52.212;9.926;2022-12-11T08:17:22;22.27;;;15.77;;
37483;SDS011;23337;52.212;9.926;2022-12-11T08:19:48;23.97;;;16.80;;
37483;SDS011;23337;52.212;9.926;2022-12-11T08:22:14;22.70;;;16.00;;
37483;SDS011;23337;52.212;9.926;2022-12-11T08:24:40;18.73;;;14.57;;
37483;SDS011;23337;52.212;9.926;2022-12-11T08:27:06;21.77;;;16.07;;
37483;SDS011;23337;52.212;9.926;2022-12-11T08:29:32;22.43;;;14.43;;
37483;SDS011;23337;52.212;9.926;2022-12-11T08:31:58;21.40;;;15.67;;
37483;SDS011;23337;52.212;9.926;2022-12-11T08:34:24;23.23;;;15.33;;
37483;SDS011;23337;52.212;9.926;2022-12-11T08:36:50;20.57;;;16.13;;
37483;SDS011;23337;52.212;9.926;2022-12-11T08:39:15;21.70;;;16.93;;
37483;SDS011;23337;52.212;9.926;2022-12-11T08:41:41;24.50;;;15.97;;
37483;SDS011;23337;52.212;9.926;2022-12-11T08:44:10;26.53;;;18.43;;
37483;SDS011;23337;52.212;9.926;2022-12-11T08:46:36;27.57;;;16.40;;
37483;SDS011;23337;52.212;9.926;2022-12-11T08:49:02;25.10;;;17.50;;
37483;SDS011;23337;52.212;9.926;2022-12-11T08:51:28;20.83;;;16.30;;
37483;SDS011;23337;52.212;9.926;2022-12-11T08:53:55;23.00;;;17.00;;
37483;SDS011;23337;52.212;9.926;2022-12-11T08:56:24;22.07;;;15.23;;
37483;SDS011;23337;52.212;9.926;2022-12-11T08:58:51;23.00;;;16.20;;
37483;SDS011;23337;52.212;9.926;2022-12-11T09:01:18;23.20;;;15.83;;
37483;SDS011;23337;52.212;9.926;2022-12-11T09:03:45;21.90;;;16.83;;
37483;SDS011;23337;52.212;9.926;2022-12-11T09:06:12;20.00;;;14.63;;
37483;SDS011;23337;52.212;9.926;2022-12-11T09:08:39;22.40;;;14.83;;
37483;SDS011;23337;52.212;9.926;2022-12-11T09:11:06;22.57;;;14.63;;
37483;SDS011;23337;52.212;9.926;2022-12-11T09:13:32;24.03;;;15.97;;
37483;SDS011;23337;52.212;9.926;2022-12-11T09:15:58;22.27;;;16.27;;
37483;SDS011;23337;52.212;9.926;2022-12-11T09:18:24;21.93;;;16.20;;
37483;SDS011;23337;52.212;9.926;2022-12-11T09:23:45;21.43;;;15.47;;
37483;SDS011;23337;52.212;9.926;2022-12-11T09:26:13;25.33;;;16.10;;
37483;SDS011;23337;52.212;9.926;2022-12-11T09:28:40;20.47;;;14.63;;
37483;SDS011;23337;52.212;9.926;2022-12-11T09:31:08;19.53;;;13.90;;
37483;SDS011;23337;52.212;9.926;2022-12-11T09:33:34;19.97;;;15.10;;
37483;SDS011;23337;52.212;9.926;2022-12-11T09:36:00;23.87;;;15.27;;
37483;SDS011;23337;52.212;9.926;2022-12-11T09:38:27;24.00;;;16.40;;
37483;SDS011;23337;52.212;9.926;2022-12-11T09:40:53;22.23;;;15.27;;
37483;SDS011;23337;52.212;9.926;2022-12-11T09:45:54;21.43;;;15.13;;
37483;SDS011;23337;52.212;9.926;2022-12-11T09:48:21;24.17;;;15.23;;
37483;SDS011;23337;52.212;9.926;2022-12-11T09:50:49;24.43;;;16.53;;
37483;SDS011;23337;52.212;9.926;2022-12-11T09:53:29;24.90;;;16.67;;
37483;SDS011;23337;52.212;9.926;2022-12-11T09:55:59;24.17;;;15.67;;
37483;SDS011;23337;52.212;9.926;2022-12-11T10:01:06;25.97;;;16.47;;
37483;SDS011;23337;52.212;9.926;2022-12-11T10:06:20;24.80;;;16.73;;
37483;SDS011;23337;52.212;9.926;2022-12-11T10:08:59;19.47;;;14.83;;
37483;SDS011;23337;52.212;9.926;2022-12-11T10:14:14;22.97;;;15.93;;
37483;SDS011;23337;52.212;9.926;2022-12-11T10:16:51;26.73;;;15.93;;
37483;SDS011;23337;52.212;9.926;2022-12-11T10:19:26;23.67;;;16.87;;
37483;SDS011;23337;52.212;9.926;2022-12-11T10:21:53;21.27;;;15.17;;
37483;SDS011;23337;52.212;9.926;2022-12-11T10:26:50;24.77;;;15.50;;
37483;SDS011;23337;52.212;9.926;2022-12-11T10:29:19;26.00;;;14.57;;
37483;SDS011;23337;52.212;9.926;2022-12-11T10:31:52;23.87;;;15.90;;
37483;SDS011;23337;52.212;9.926;2022-12-11T10:34:29;21.37;;;14.57;;
37483;SDS011;23337;52.212;9.926;2022-12-11T10:36:58;22.37;;;15.50;;
37483;SDS011;23337;52.212;9.926;2022-12-11T10:39:24;23.17;;;16.03;;
37483;SDS011;23337;52.212;9.926;2022-12-11T10:41:51;23.07;;;16.13;;
37483;SDS011;23337;52.212;9.926;2022-12-11T10:44:18;23.97;;;15.90;;
37483;SDS011;23337;52.212;9.926;2022-12-11T10:46:45;21.63;;;15.07;;
37483;SDS011;23337;52.212;9.926;2022-12-11T10:49:51;24.03;;;15.13;;
37483;SDS011;23337;52.212;9.926;2022-12-11T10:52:10;22.20;;;15.63;;
37483;SDS011;23337;52.212;9.926;2022-12-11T10:54:38;23.20;;;15.73;;
37483;SDS011;23337;52.212;9.926;2022-12-11T10:57:05;20.63;;;14.03;;
37483;SDS011;23337;52.212;9.926;2022-12-11T10:59:44;22.17;;;14.77;;
37483;SDS011;23337;52.212;9.926;2022-12-11T11:02:21;22.20;;;14.03;;
37483;SDS011;23337;52.212;9.926;2022-12-11T11:04:48;23.17;;;15.07;;
37483;SDS011;23337;52.212;9.926;2022-12-11T11:07:18;21.47;;;15.43;;
37483;SDS011;23337;52.212;9.926;2022-12-11T11:09:45;22.23;;;15.13;;
37483;SDS011;23337;52.212;9.926;2022-12-11T11:12:18;24.50;;;16.23;;
37483;SDS011;23337;52.212;9.926;2022-12-11T11:14:45;19.70;;;13.97;;
37483;SDS011;23337;52.212;9.926;2022-12-11T11:17:14;20.33;;;14.13;;
37483;SDS011;23337;52.212;9.926;2022-12-11T11:19:40;22.33;;;14.93;;
37483;SDS011;23337;52.212;9.926;2022-12-11T11:22:16;21.80;;;14.80;;
37483;SDS011;23337;52.212;9.926;2022-12-11T11:24:52;22.63;;;14.63;;
37483;SDS011;23337;52.212;9.926;2022-12-11T11:27:38;19.60;;;14.53;;
37483;SDS011;23337;52.212;9.926;2022-12-11T11:30:15;18.40;;;13.90;;
37483;SDS011;23337;52.212;9.926;2022-12-11T11:32:42;20.03;;;13.77;;
37483;SDS011;23337;52.212;9.926;2022-12-11T11:37:38;28.67;;;21.10;;
37483;SDS011;23337;52.212;9.926;2022-12-11T11:40:12;75.83;;;46.53;;
37483;SDS011;23337;52.212;9.926;2022-12-11T11:42:46;53.53;;;33.77;;
37483;SDS011;23337;52.212;9.926;2022-12-11T11:45:28;29.50;;;18.70;;
37483;SDS011;23337;52.212;9.926;2022-12-11T11:47:58;19.87;;;14.67;;
37483;SDS011;23337;52.212;9.926;2022-12-11T11:50:25;19.03;;;14.07;;
37483;SDS011;23337;52.212;9.926;2022-12-11T11:53:09;19.93;;;14.47;;
37483;SDS011;23337;52.212;9.926;2022-12-11T11:58:22;23.20;;;16.00;;
37483;SDS011;23337;52.212;9.926;2022-12-11T12:00:54;25.53;;;17.87;;
37483;SDS011;23337;52.212;9.926;2022-12-11T12:03:21;20.30;;;14.17;;
37483;SDS011;23337;52.212;9.926;2022-12-11T12:11:02;25.57;;;16.10;;
37483;SDS011;23337;52.212;9.926;2022-12-11T12:19:26;16.83;;;11.97;;
37483;SDS011;23337;52.212;9.926;2022-12-11T12:21:52;16.33;;;11.93;;
37483;SDS011;23337;52.212;9.926;2022-12-11T12:26:51;29.43;;;19.23;;
37483;SDS011;23337;52.212;9.926;2022-12-11T12:29:52;20.13;;;14.70;;
37483;SDS011;23337;52.212;9.926;2022-12-11T12:37:20;18.57;;;12.27;;
37483;SDS011;23337;52.212;9.926;2022-12-11T12:47:31;24.60;;;15.63;;
37483;SDS011;23337;52.212;9.926;2022-12-11T12:49:58;18.40;;;12.27;;
37483;SDS011;23337;52.212;9.926;2022-12-11T12:52:38;16.17;;;12.77;;
37483;SDS011;23337;52.212;9.926;2022-12-11T12:55:14;18.53;;;12.07;;
37483;SDS011;23337;52.212;9.926;2022-12-11T12:57:44;16.50;;;12.93;;
37483;SDS011;23337;52.212;9.926;2022-12-11T13:00:11;21.47;;;13.43;;
37483;SDS011;23337;52.212;9.926;2022-12-11T13:02:45;19.00;;;13.07;;
37483;SDS011;23337;52.212;9.926;2022-12-11T13:05:20;16.13;;;12.90;;
37483;SDS011;23337;52.212;9.926;2022-12-11T13:07:49;17.87;;;12.63;;
37483;SDS011;23337;52.212;9.926;2022-12-11T13:10:35;15.80;;;11.97;;
37483;SDS011;23337;52.212;9.926;2022-12-11T13:13:02;19.53;;;12.73;;
37483;SDS011;23337;52.212;9.926;2022-12-11T13:15:30;23.77;;;18.50;;
37483;SDS011;23337;52.212;9.926;2022-12-11T13:17:57;19.37;;;14.47;;
37483;SDS011;23337;52.212;9.926;2022-12-11T13:20:27;19.03;;;14.13;;
37483;SDS011;23337;52.212;9.926;2022-12-11T13:25:49;18.27;;;13.87;;
37483;SDS011;23337;52.212;9.926;2022-12-11T13:28:58;22.17;;;14.50;;
37483;SDS011;23337;52.212;9.926;2022-12-11T13:33:44;17.97;;;13.50;;
37483;SDS011;23337;52.212;9.926;2022-12-11T13:38:37;21.83;;;16.17;;
37483;SDS011;23337;52.212;9.926;2022-12-11T13:41:08;19.20;;;15.17;;
37483;SDS011;23337;52.212;9.926;2022-12-11T13:43:35;20.03;;;14.73;;
37483;SDS011;23337;52.212;9.926;2022-12-11T13:46:03;21.00;;;14.37;;
37483;SDS011;23337;52.212;9.926;2022-12-11T13:51:01;20.17;;;14.43;;
37483;SDS011;23337;52.212;9.926;2022-12-11T13:53:27;16.50;;;13.03;;
37483;SDS011;23337;52.212;9.926;2022-12-11T13:56:04;20.70;;;13.90;;
37483;SDS011;23337;52.212;9.926;2022-12-11T13:58:34;18.43;;;13.27;;
37483;SDS011;23337;52.212;9.926;2022-12-11T14:03:28;18.43;;;12.03;;
37483;SDS011;23337;52.212;9.926;2022-12-11T14:05:55;18.30;;;13.20;;
37483;SDS011;23337;52.212;9.926;2022-12-11T14:08:21;16.70;;;11.90;;
37483;SDS011;23337;52.212;9.926;2022-12-11T14:10:51;20.93;;;13.57;;
37483;SDS011;23337;52.212;9.926;2022-12-11T14:13:22;19.23;;;12.40;;
37483;SDS011;23337;52.212;9.926;2022-12-11T14:15:49;18.87;;;11.83;;
37483;SDS011;23337;52.212;9.926;2022-12-11T14:18:17;17.23;;;11.90;;
37483;SDS011;23337;52.212;9.926;2022-12-11T14:20:45;19.60;;;12.80;;
37483;SDS011;23337;52.212;9.926;2022-12-11T14:23:19;20.40;;;13.53;;
37483;SDS011;23337;52.212;9.926;2022-12-11T14:25:52;24.20;;;15.00;;
37483;SDS011;23337;52.212;9.926;2022-12-11T14:28:19;29.73;;;20.50;;
37483;SDS011;23337;52.212;9.926;2022-12-11T14:30:46;38.23;;;26.07;;
37483;SDS011;23337;52.212;9.926;2022-12-11T14:33:14;32.60;;;22.90;;
37483;SDS011;23337;52.212;9.926;2022-12-11T14:35:41;37.33;;;25.07;;
37483;SDS011;23337;52.212;9.926;2022-12-11T14:38:24;30.70;;;21.47;;
37483;SDS011;23337;52.212;9.926;2022-12-11T14:40:52;34.17;;;23.70;;
37483;SDS011;23337;52.212;9.926;2022-12-11T14:43:22;36.17;;;27.60;;
37483;SDS011;23337;52.212;9.926;2022-12-11T14:45:49;30.67;;;24.03;;
37483;SDS011;23337;52.212;9.926;2022-12-11T14:48:20;28.43;;;23.33;;
37483;SDS011;23337;52.212;9.926;2022-12-11T14:50:48;22.93;;;17.87;;
37483;SDS011;23337;52.212;9.926;2022-12-11T14:53:19;24.20;;;14.20;;
37483;SDS011;23337;52.212;9.926;2022-12-11T14:55:47;20.20;;;12.73;;
37483;SDS011;23337;52.212;9.926;2022-12-11T14:58:14;19.70;;;13.20;;
37483;SDS011;23337;52.212;9.926;2022-12-11T15:00:41;18.77;;;13.80;;
37483;SDS011;23337;52.212;9.926;2022-12-11T15:05:46;17.67;;;12.10;;
37483;SDS011;23337;52.212;9.926;2022-12-11T15:10:52;18.87;;;12.77;;
37483;SDS011;23337;52.212;9.926;2022-12-11T15:13:23;19.57;;;13.67;;
37483;SDS011;23337;52.212;9.926;2022-12-11T15:15:49;19.03;;;12.13;;
37483;SDS011;23337;52.212;9.926;2022-12-11T15:18:29;20.80;;;13.37;;
37483;SDS011;23337;52.212;9.926;2022-12-11T15:20:56;100.37;;;55.37;;
37483;SDS011;23337;52.212;9.926;2022-12-11T15:23:23;106.37;;;62.10;;
37483;SDS011;23337;52.212;9.926;2022-12-11T15:25:50;75.87;;;46.87;;
37483;SDS011;23337;52.212;9.926;2022-12-11T15:28:33;46.67;;;35.57;;
37483;SDS011;23337;52.212;9.926;2022-12-11T15:31:00;31.03;;;22.63;;
37483;SDS011;23337;52.212;9.926;2022-12-11T15:33:26;31.07;;;23.93;;
37483;SDS011;23337;52.212;9.926;2022-12-11T15:36:03;24.00;;;18.80;;
37483;SDS011;23337;52.212;9.926;2022-12-11T15:38:37;23.53;;;17.10;;
37483;SDS011;23337;52.212;9.926;2022-12-11T15:41:12;28.30;;;18.77;;
37483;SDS011;23337;52.212;9.926;2022-12-11T15:43:38;30.57;;;21.30;;
37483;SDS011;23337;52.212;9.926;2022-12-11T15:46:04;30.70;;;18.63;;
37483;SDS011;23337;52.212;9.926;2022-12-11T15:48:31;30.57;;;19.37;;
37483;SDS011;23337;52.212;9.926;2022-12-11T15:50:57;28.53;;;18.43;;